createdAt,value
2023-03-04T00:02:24.686Z,9.40
2023-03-04T00:04:50.902Z,9.90
2023-03-04T00:07:18.249Z,11.50
2023-03-04T00:09:45.316Z,13.00
2023-03-04T00:12:12.742Z,10.60
2023-03-04T00:14:38.869Z,10.60
2023-03-04T00:17:06.357Z,11.80
2023-03-04T00:19:32.477Z,10.70
2023-03-04T00:21:58.555Z,10.10
2023-03-04T00:24:24.593Z,10.00
2023-03-04T00:26:50.760Z,10.70
2023-03-04T00:29:16.804Z,9.10
2023-03-04T00:31:42.974Z,10.20
2023-03-04T00:34:09.086Z,10.70
2023-03-04T00:36:35.118Z,10.50
2023-03-04T00:39:01.200Z,10.70
2023-03-04T00:41:28.300Z,9.80
2023-03-04T00:43:54.426Z,10.10
2023-03-04T00:46:20.621Z,11.90
2023-03-04T00:48:46.737Z,11.00
2023-03-04T00:51:12.871Z,10.80
2023-03-04T00:53:39.137Z,10.60
2023-03-04T00:56:05.747Z,11.60
2023-03-04T00:58:31.832Z,10.30
2023-03-04T01:00:58.229Z,11.00
2023-03-04T01:03:26.216Z,10.70
2023-03-04T01:05:52.255Z,10.00
2023-03-04T01:08:18.276Z,13.10
2023-03-04T01:10:44.819Z,11.50
2023-03-04T01:13:10.980Z,10.50
2023-03-04T01:15:37.084Z,10.20
2023-03-04T01:18:04.969Z,11.90
2023-03-04T01:20:31.207Z,9.70
2023-03-04T01:22:57.282Z,10.30
2023-03-04T01:25:23.351Z,8.80
2023-03-04T01:27:49.441Z,13.00
2023-03-04T01:30:19.186Z,12.40
2023-03-04T01:32:45.237Z,12.50
2023-03-04T01:35:11.469Z,10.60
2023-03-04T01:37:37.621Z,11.60
2023-03-04T01:40:05.149Z,10.90
2023-03-04T01:42:35.319Z,9.20
2023-03-04T01:45:02.333Z,11.30
2023-03-04T01:47:30.955Z,9.60
2023-03-04T01:49:58.160Z,11.00
2023-03-04T01:52:26.482Z,11.10
2023-03-04T01:54:53.052Z,10.50
2023-03-04T01:57:21.786Z,11.40
2023-03-04T02:00:18.959Z,11.10
2023-03-04T02:02:46.888Z,11.70
2023-03-04T02:05:14.048Z,13.80
2023-03-04T02:07:40.542Z,15.10
2023-03-04T02:10:07.198Z,12.00
2023-03-04T02:12:33.843Z,13.60
2023-03-04T02:15:00.223Z,13.20
2023-03-04T02:17:27.647Z,12.10
2023-03-04T02:20:06.853Z,13.80
2023-03-04T02:22:42.658Z,13.20
2023-03-04T02:25:18.384Z,17.60
2023-03-04T02:27:44.494Z,15.70
2023-03-04T02:30:12.488Z,17.40
2023-03-04T02:32:38.603Z,16.60
2023-03-04T02:35:05.315Z,18.50
2023-03-04T02:37:31.702Z,15.00
2023-03-04T02:39:58.908Z,16.10
2023-03-04T02:42:25.106Z,15.40
2023-03-04T02:44:59.732Z,14.00
2023-03-04T02:47:25.919Z,13.40
2023-03-04T02:49:54.392Z,22.20
2023-03-04T02:52:24.330Z,16.50
2023-03-04T02:54:50.720Z,13.10
2023-03-04T02:57:17.302Z,11.20
2023-03-04T02:59:46.762Z,10.80
2023-03-04T03:02:16.433Z,9.70
2023-03-04T03:04:42.530Z,9.10
2023-03-04T03:07:11.373Z,9.90
2023-03-04T03:09:37.688Z,10.40
2023-03-04T03:12:04.060Z,10.80
2023-03-04T03:14:30.270Z,10.60
2023-03-04T03:16:56.427Z,10.20
2023-03-04T03:19:22.566Z,11.90
2023-03-04T03:21:49.794Z,10.40
2023-03-04T03:24:16.028Z,12.70
2023-03-04T03:26:42.086Z,12.80
2023-03-04T03:29:08.154Z,14.00
2023-03-04T03:31:34.276Z,13.10
2023-03-04T03:34:00.557Z,12.00
2023-03-04T03:36:27.224Z,13.40
2023-03-04T03:38:53.314Z,20.70
2023-03-04T03:41:19.533Z,19.90
2023-03-04T03:43:45.583Z,14.80
2023-03-04T03:46:11.695Z,14.10
2023-03-04T03:48:37.797Z,13.00
2023-03-04T03:51:04.069Z,13.20
2023-03-04T03:53:30.137Z,13.40
2023-03-04T03:55:56.193Z,13.20
2023-03-04T03:58:22.581Z,10.40
2023-03-04T04:00:48.714Z,10.50
2023-03-04T04:03:15.994Z,10.80
2023-03-04T04:05:42.102Z,11.20
2023-03-04T04:08:14.856Z,12.80
2023-03-04T04:10:41.796Z,13.50
2023-03-04T04:13:08.326Z,16.30
2023-03-04T04:15:35.991Z,19.50
2023-03-04T04:18:02.369Z,20.00
2023-03-04T04:20:28.487Z,21.40
2023-03-04T04:22:54.633Z,17.80
2023-03-04T04:25:20.934Z,17.60
2023-03-04T04:27:47.086Z,16.50
2023-03-04T04:30:13.680Z,15.20
2023-03-04T04:32:39.873Z,14.00
2023-03-04T04:35:06.842Z,13.70
2023-03-04T04:37:33.113Z,13.30
2023-03-04T04:39:59.210Z,13.70
2023-03-04T04:42:25.459Z,10.40
2023-03-04T04:44:52.050Z,19.10
2023-03-04T04:47:18.254Z,19.80
2023-03-04T04:49:44.480Z,12.50
2023-03-04T04:52:11.176Z,14.60
2023-03-04T04:54:37.268Z,14.90
2023-03-04T04:57:03.292Z,14.00
2023-03-04T04:59:29.415Z,12.30
2023-03-04T05:01:55.526Z,14.10
2023-03-04T05:04:21.573Z,11.90
2023-03-04T05:06:47.695Z,13.60
2023-03-04T05:09:13.866Z,13.60
2023-03-04T05:11:39.926Z,15.00
2023-03-04T05:14:06.056Z,21.40
2023-03-04T05:16:32.540Z,28.20
2023-03-04T05:18:58.564Z,20.30
2023-03-04T05:21:24.660Z,17.10
2023-03-04T05:23:51.626Z,16.60
2023-03-04T05:26:18.306Z,16.30
2023-03-04T05:28:45.169Z,14.00
2023-03-04T05:31:11.648Z,17.40
2023-03-04T05:33:38.016Z,17.70
2023-03-04T05:36:06.047Z,25.00
2023-03-04T05:38:32.718Z,22.30
2023-03-04T05:41:02.432Z,20.70
2023-03-04T05:43:28.647Z,15.20
2023-03-04T05:45:55.564Z,17.80
2023-03-04T05:48:22.551Z,17.60
2023-03-04T05:50:59.764Z,25.30
2023-03-04T05:53:26.058Z,19.20
2023-03-04T05:55:52.370Z,16.10
2023-03-04T05:58:18.789Z,16.50
2023-03-04T06:00:45.297Z,14.00
2023-03-04T06:03:17.522Z,12.00
2023-03-04T06:05:43.769Z,11.50
2023-03-04T06:08:11.287Z,12.90
2023-03-04T06:10:38.942Z,12.80
2023-03-04T06:13:05.349Z,12.60
2023-03-04T06:15:31.698Z,13.40
2023-03-04T06:17:57.816Z,14.00
2023-03-04T06:20:23.969Z,14.70
2023-03-04T06:22:50.465Z,12.30
2023-03-04T06:25:16.578Z,14.60
2023-03-04T06:27:42.702Z,13.90
2023-03-04T06:30:09.840Z,14.50
2023-03-04T06:32:35.930Z,15.80
2023-03-04T06:35:02.107Z,15.10
2023-03-04T06:37:28.203Z,16.00
2023-03-04T06:39:55.600Z,16.70
2023-03-04T06:42:21.652Z,17.20
2023-03-04T06:44:48.956Z,14.90
2023-03-04T06:47:24.036Z,14.50
2023-03-04T06:49:50.103Z,10.00
2023-03-04T06:52:16.241Z,9.00
2023-03-04T06:54:44.871Z,10.00
2023-03-04T06:57:11.024Z,9.10
2023-03-04T06:59:37.292Z,10.40
2023-03-04T07:02:03.390Z,12.30
2023-03-04T07:04:30.941Z,10.90
2023-03-04T07:06:57.785Z,10.30
2023-03-04T07:09:24.027Z,10.80
2023-03-04T07:11:52.544Z,10.40
2023-03-04T07:14:18.734Z,9.20
2023-03-04T07:16:44.866Z,10.00
2023-03-04T07:19:11.067Z,10.50
2023-03-04T07:21:37.360Z,9.90
2023-03-04T07:24:03.609Z,10.00
2023-03-04T07:26:29.717Z,8.60
2023-03-04T07:28:57.777Z,10.00
2023-03-04T07:31:28.848Z,8.80
2023-03-04T07:34:00.312Z,9.70
2023-03-04T07:36:26.970Z,10.00
2023-03-04T07:38:56.353Z,9.90
2023-03-04T07:41:24.823Z,9.70
2023-03-04T07:43:51.173Z,9.00
2023-03-04T07:46:18.845Z,9.30
2023-03-04T07:48:45.262Z,9.30
2023-03-04T07:51:19.698Z,9.00
2023-03-04T07:53:48.305Z,9.20
2023-03-04T07:56:18.530Z,9.20
2023-03-04T07:58:45.536Z,8.60
2023-03-04T08:01:17.609Z,10.00
2023-03-04T08:03:44.682Z,10.90
2023-03-04T08:06:14.402Z,10.10
2023-03-04T08:08:40.694Z,8.50
2023-03-04T08:11:09.644Z,9.80
2023-03-04T08:13:35.911Z,11.10
2023-03-04T08:16:03.181Z,10.30
2023-03-04T08:18:29.427Z,9.00
2023-03-04T08:20:56.005Z,9.20
2023-03-04T08:23:22.568Z,11.00
2023-03-04T08:25:48.854Z,11.40
2023-03-04T08:28:15.025Z,8.60
2023-03-04T08:30:41.722Z,10.30
2023-03-04T08:33:09.126Z,9.90
2023-03-04T08:35:39.908Z,9.70
2023-03-04T08:38:06.699Z,11.60
2023-03-04T08:40:32.994Z,10.40
2023-03-04T08:42:59.259Z,10.70
2023-03-04T08:45:25.390Z,11.00
2023-03-04T08:47:51.610Z,12.10
2023-03-04T08:50:17.834Z,11.60
2023-03-04T08:52:43.949Z,10.40
2023-03-04T08:55:10.133Z,9.40
2023-03-04T08:57:36.258Z,10.00
2023-03-04T09:00:02.990Z,9.10
2023-03-04T09:02:29.084Z,9.80
2023-03-04T09:04:55.168Z,9.20
2023-03-04T09:07:21.497Z,9.80
2023-03-04T09:09:47.698Z,9.20
2023-03-04T09:12:13.795Z,10.10
2023-03-04T09:14:39.992Z,8.60
2023-03-04T09:17:06.616Z,9.20
2023-03-04T09:19:32.788Z,8.50
2023-03-04T09:21:58.898Z,8.80
2023-03-04T09:24:26.124Z,9.10
2023-03-04T09:26:54.383Z,8.40
2023-03-04T09:29:21.773Z,9.10
2023-03-04T09:31:47.948Z,8.70
2023-03-04T09:34:14.432Z,8.40
2023-03-04T09:36:40.618Z,9.10
2023-03-04T09:39:06.885Z,7.80
2023-03-04T09:41:48.139Z,6.90
2023-03-04T09:44:23.284Z,7.90
2023-03-04T09:46:50.670Z,7.70
2023-03-04T09:49:18.765Z,8.00
2023-03-04T09:52:09.549Z,9.80
2023-03-04T09:55:00.160Z,10.20
2023-03-04T09:57:56.968Z,10.70
2023-03-04T10:00:40.943Z,9.80
2023-03-04T10:03:09.881Z,9.60
2023-03-04T10:05:44.147Z,9.70
2023-03-04T10:08:36.988Z,10.90
2023-03-04T10:11:08.830Z,11.50
2023-03-04T10:13:42.140Z,10.70
2023-03-04T10:16:14.335Z,10.70
2023-03-04T10:19:12.886Z,10.50
2023-03-04T10:21:44.266Z,9.90
2023-03-04T10:24:12.925Z,10.10
2023-03-04T10:26:41.963Z,11.20
2023-03-04T10:29:15.271Z,11.00
2023-03-04T10:31:43.133Z,11.60
2023-03-04T10:34:13.876Z,11.40
2023-03-04T10:36:49.856Z,11.40
2023-03-04T10:39:24.388Z,11.90
2023-03-04T10:42:04.192Z,11.50
2023-03-04T10:44:31.909Z,11.40
2023-03-04T10:46:58.241Z,9.50
2023-03-04T10:49:26.438Z,11.00
2023-03-04T10:52:03.957Z,9.90
2023-03-04T10:54:51.485Z,11.30
2023-03-04T10:57:21.123Z,11.00
2023-03-04T10:59:54.424Z,10.80
2023-03-04T11:02:22.352Z,11.30
2023-03-04T11:05:04.258Z,9.60
2023-03-04T11:07:32.635Z,10.80
2023-03-04T11:10:25.095Z,9.80
2023-03-04T11:12:58.760Z,10.40
2023-03-04T11:15:27.106Z,11.10
2023-03-04T11:18:03.828Z,11.40
2023-03-04T11:20:47.815Z,11.70
2023-03-04T11:23:23.243Z,10.40
2023-03-04T11:25:55.711Z,10.60
2023-03-04T11:28:36.229Z,14.30
2023-03-04T11:31:12.548Z,12.30
2023-03-04T11:33:53.214Z,11.50
2023-03-04T11:36:35.263Z,10.20
2023-03-04T11:39:04.482Z,11.60
2023-03-04T11:41:35.640Z,10.40
2023-03-04T11:44:05.770Z,10.20
2023-03-04T11:46:50.193Z,11.50
2023-03-04T11:49:27.989Z,10.20
2023-03-04T11:52:06.162Z,12.40
2023-03-04T11:54:37.868Z,13.20
2023-03-04T11:57:35.111Z,13.40
2023-03-04T12:00:30.324Z,12.80
2023-03-04T12:03:24.484Z,11.30
2023-03-04T12:06:02.600Z,11.60
2023-03-04T12:08:50.715Z,12.40
2023-03-04T12:11:47.961Z,11.70
2023-03-04T12:14:56.249Z,14.30
2023-03-04T12:17:28.163Z,12.50
2023-03-04T12:20:30.799Z,13.90
2023-03-04T12:23:16.137Z,20.00
2023-03-04T12:26:15.991Z,16.80
2023-03-04T12:28:58.832Z,16.10
2023-03-04T12:31:45.514Z,13.20
2023-03-04T12:34:41.666Z,13.30
2023-03-04T12:37:35.572Z,11.40
2023-03-04T12:40:44.877Z,12.90
2023-03-04T12:43:29.979Z,13.50
2023-03-04T12:46:08.138Z,12.90
2023-03-04T12:49:01.715Z,13.00
2023-03-04T12:51:39.923Z,14.10
2023-03-04T12:54:44.898Z,12.30
2023-03-04T12:57:22.309Z,12.80
2023-03-04T12:59:57.244Z,13.30
2023-03-04T13:02:38.259Z,12.50
2023-03-04T13:05:19.666Z,11.70
2023-03-04T13:07:58.810Z,13.80
2023-03-04T13:10:25.108Z,12.70
2023-03-04T13:12:54.531Z,14.00
2023-03-04T13:15:20.626Z,13.60
2023-03-04T13:17:55.907Z,14.60
2023-03-04T13:20:21.999Z,12.80
2023-03-04T13:23:22.571Z,13.20
2023-03-04T13:26:15.842Z,14.10
2023-03-04T13:28:42.337Z,13.30
2023-03-04T13:31:17.580Z,14.40
2023-03-04T13:33:49.082Z,15.60
2023-03-04T13:36:31.859Z,14.90
2023-03-04T13:39:21.224Z,15.60
2023-03-04T13:41:53.070Z,16.60
2023-03-04T13:44:43.900Z,16.30
2023-03-04T13:47:19.726Z,15.80
2023-03-04T13:49:46.071Z,15.30
2023-03-04T13:52:40.946Z,15.40
2023-03-04T13:55:28.528Z,15.60
2023-03-04T13:57:55.149Z,14.70
2023-03-04T14:00:21.553Z,15.60
2023-03-04T14:02:47.734Z,16.00
2023-03-04T14:05:14.074Z,17.90
2023-03-04T14:07:40.242Z,14.30
2023-03-04T14:10:18.807Z,17.00
2023-03-04T14:12:51.463Z,15.70
2023-03-04T14:15:26.990Z,15.80
2023-03-04T14:17:55.533Z,14.90
2023-03-04T14:20:36.015Z,15.80
2023-03-04T14:23:23.703Z,16.60
2023-03-04T14:25:50.023Z,15.60
2023-03-04T14:28:19.186Z,16.90
2023-03-04T14:30:53.444Z,15.00
2023-03-04T14:33:30.252Z,16.10
2023-03-04T14:35:59.458Z,16.50
2023-03-04T14:38:29.083Z,16.20
2023-03-04T14:41:09.619Z,17.90
2023-03-04T14:43:41.571Z,17.20
2023-03-04T14:46:13.258Z,18.30
2023-03-04T14:48:46.933Z,18.90
2023-03-04T14:51:41.151Z,18.00
2023-03-04T14:54:25.189Z,18.60
2023-03-04T14:56:51.381Z,17.90
2023-03-04T14:59:17.652Z,17.10
2023-03-04T15:01:45.329Z,16.60
2023-03-04T15:04:18.380Z,16.30
2023-03-04T15:06:53.010Z,15.10
2023-03-04T15:09:25.100Z,17.60
2023-03-04T15:11:57.218Z,16.20
2023-03-04T15:14:42.392Z,13.30
2023-03-04T15:17:41.950Z,14.00
2023-03-04T15:20:08.061Z,12.70
2023-03-04T15:22:40.650Z,10.80
2023-03-04T15:25:08.352Z,9.70
2023-03-04T15:27:34.576Z,8.40
2023-03-04T15:30:01.637Z,10.90
2023-03-04T15:32:29.559Z,8.90
2023-03-04T15:34:56.529Z,11.00
2023-03-04T15:37:28.744Z,9.20
2023-03-04T15:42:22.550Z,16.20
2023-03-04T15:44:48.990Z,15.40
2023-03-04T15:47:15.192Z,18.10
2023-03-04T15:49:43.334Z,18.50
2023-03-04T15:52:16.471Z,17.80
2023-03-04T15:54:43.503Z,17.90
2023-03-04T15:57:21.368Z,17.30
2023-03-04T15:59:47.811Z,17.70
2023-03-04T16:02:26.462Z,16.60
2023-03-04T16:04:53.415Z,17.40
2023-03-04T16:07:23.525Z,18.30
2023-03-04T16:09:56.016Z,17.90
2023-03-04T16:12:23.659Z,17.70
2023-03-04T16:14:50.576Z,18.50
2023-03-04T16:17:16.867Z,18.90
2023-03-04T16:19:43.141Z,11.60
2023-03-04T16:22:13.625Z,18.90
2023-03-04T16:24:39.936Z,17.30
2023-03-04T16:27:11.354Z,16.20
2023-03-04T16:29:37.529Z,16.00
2023-03-04T16:32:03.858Z,16.70
2023-03-04T16:34:31.267Z,17.40
2023-03-04T16:36:58.045Z,19.40
2023-03-04T16:39:27.597Z,17.50
2023-03-04T16:41:54.400Z,18.00
2023-03-04T16:44:20.552Z,17.20
2023-03-04T16:46:46.674Z,17.70
2023-03-04T16:49:12.897Z,17.90
2023-03-04T16:51:45.093Z,18.00
2023-03-04T16:54:27.234Z,20.80
2023-03-04T16:56:53.667Z,20.00
2023-03-04T16:59:19.757Z,21.10
2023-03-04T17:01:46.067Z,21.90
2023-03-04T17:04:12.445Z,20.70
2023-03-04T17:06:39.274Z,22.10
2023-03-04T17:09:07.009Z,21.20
2023-03-04T17:11:34.015Z,21.00
2023-03-04T17:14:00.316Z,20.70
2023-03-04T17:16:26.921Z,19.60
2023-03-04T17:18:53.332Z,19.50
2023-03-04T17:21:25.648Z,19.80
2023-03-04T17:26:21.976Z,16.90
2023-03-04T17:28:49.622Z,25.40
2023-03-04T17:31:18.308Z,19.30
2023-03-04T17:33:45.522Z,21.70
2023-03-04T17:36:13.980Z,19.20
2023-03-04T17:38:40.866Z,22.00
2023-03-04T17:41:09.995Z,22.90
2023-03-04T17:43:36.202Z,22.90
2023-03-04T17:46:05.088Z,22.00
2023-03-04T17:48:31.694Z,22.50
2023-03-04T17:50:58.003Z,21.90
2023-03-04T17:53:24.320Z,21.40
2023-03-04T17:55:54.940Z,21.40
2023-03-04T17:58:22.338Z,21.50
2023-03-04T18:00:50.729Z,23.90
2023-03-04T18:03:16.960Z,22.40
2023-03-04T18:05:46.034Z,22.40
2023-03-04T18:08:12.473Z,22.70
2023-03-04T18:10:38.658Z,23.00
2023-03-04T18:13:04.758Z,22.60
2023-03-04T18:15:31.495Z,21.00
2023-03-04T18:17:57.724Z,23.60
2023-03-04T18:20:24.013Z,25.50
2023-03-04T18:22:50.139Z,23.40
2023-03-04T18:25:16.875Z,24.00
2023-03-04T18:27:43.177Z,25.40
2023-03-04T18:30:11.780Z,24.40
2023-03-04T18:32:51.350Z,56.70
2023-03-04T18:35:18.865Z,50.20
2023-03-04T18:37:45.049Z,38.20
2023-03-04T18:40:11.973Z,28.90
2023-03-04T18:42:38.445Z,25.60
2023-03-04T18:45:06.064Z,23.30
2023-03-04T18:47:33.398Z,24.70
2023-03-04T18:49:59.555Z,23.70
2023-03-04T18:52:25.617Z,24.60
2023-03-04T18:54:51.789Z,24.30
2023-03-04T18:57:17.978Z,24.60
2023-03-04T18:59:45.741Z,22.80
2023-03-04T19:02:21.944Z,15.00
2023-03-04T19:04:49.177Z,22.80
2023-03-04T19:07:15.350Z,23.10
2023-03-04T19:09:41.521Z,22.80
2023-03-04T19:12:07.631Z,23.80
2023-03-04T19:14:33.975Z,24.90
2023-03-04T19:17:00.144Z,24.50
2023-03-04T19:19:26.417Z,23.40
2023-03-04T19:21:52.619Z,24.00
2023-03-04T19:24:18.889Z,24.10
2023-03-04T19:26:45.376Z,26.10
2023-03-04T19:29:11.886Z,28.20
2023-03-04T19:31:41.026Z,29.30
2023-03-04T19:34:07.675Z,29.50
2023-03-04T19:36:33.798Z,26.10
2023-03-04T19:39:00.449Z,26.50
2023-03-04T19:41:26.482Z,27.00
2023-03-04T19:43:53.643Z,27.30
2023-03-04T19:46:19.967Z,32.20
2023-03-04T19:48:49.500Z,30.90
2023-03-04T19:51:18.616Z,31.50
2023-03-04T19:53:45.026Z,28.40
2023-03-04T19:56:11.742Z,27.90
2023-03-04T19:58:38.126Z,24.70
2023-03-04T20:01:04.609Z,22.70
2023-03-04T20:03:31.079Z,23.30
2023-03-04T20:06:08.209Z,23.80
2023-03-04T20:08:37.940Z,21.70
2023-03-04T20:11:11.897Z,22.70
2023-03-04T20:13:38.132Z,20.60
2023-03-04T20:16:09.219Z,18.00
2023-03-04T20:18:35.546Z,19.40
2023-03-04T20:21:02.223Z,17.10
2023-03-04T20:23:29.403Z,16.30
2023-03-04T20:25:55.612Z,18.20
2023-03-04T20:28:22.899Z,14.70
2023-03-04T20:30:49.621Z,13.60
2023-03-04T20:33:15.737Z,14.20
2023-03-04T20:35:41.864Z,12.70
2023-03-04T20:38:08.366Z,12.90
2023-03-04T20:40:35.349Z,11.80
2023-03-04T20:43:05.160Z,12.60
2023-03-04T20:45:33.045Z,17.40
2023-03-04T20:47:59.330Z,20.80
2023-03-04T20:50:25.530Z,15.50
2023-03-04T20:52:51.822Z,27.70
2023-03-04T20:55:18.416Z,21.20
2023-03-04T20:57:45.203Z,17.80
2023-03-04T21:00:12.114Z,17.00
2023-03-04T21:02:38.286Z,16.40
2023-03-04T21:05:04.857Z,16.10
2023-03-04T21:07:30.910Z,16.30
2023-03-04T21:09:57.344Z,17.10
2023-03-04T21:12:23.543Z,17.10
2023-03-04T21:14:49.941Z,16.30
2023-03-04T21:17:16.050Z,16.40
2023-03-04T21:19:45.394Z,16.50
2023-03-04T21:22:18.363Z,16.60
2023-03-04T21:24:45.481Z,19.00
2023-03-04T21:27:12.957Z,15.90
2023-03-04T21:29:39.249Z,16.60
2023-03-04T21:32:23.865Z,15.90
2023-03-04T21:34:52.364Z,16.60
2023-03-04T21:37:20.095Z,17.00
2023-03-04T21:39:47.011Z,15.60
2023-03-04T21:42:13.146Z,16.90
2023-03-04T21:44:49.167Z,17.30
2023-03-04T21:47:16.138Z,15.80
2023-03-04T21:49:43.762Z,17.80
2023-03-04T21:52:09.831Z,16.50
2023-03-04T21:54:36.036Z,16.10
2023-03-04T21:57:02.264Z,16.90
2023-03-04T21:59:28.511Z,15.30
2023-03-04T22:01:54.710Z,17.00
2023-03-04T22:04:20.842Z,17.00
2023-03-04T22:06:47.204Z,16.20
2023-03-04T22:09:13.893Z,17.00
2023-03-04T22:11:39.965Z,18.00
2023-03-04T22:14:06.696Z,15.60
2023-03-04T22:16:37.530Z,16.50
2023-03-04T22:19:05.951Z,16.90
2023-03-04T22:21:32.469Z,15.40
2023-03-04T22:23:58.870Z,16.30
2023-03-04T22:26:31.162Z,17.10
2023-03-04T22:28:58.564Z,15.10
2023-03-04T22:31:30.447Z,16.70
2023-03-04T22:34:01.788Z,14.40
2023-03-04T22:36:29.346Z,16.40
2023-03-04T22:38:55.763Z,17.20
2023-03-04T22:41:22.428Z,17.00
2023-03-04T22:43:49.401Z,16.50
2023-03-04T22:46:21.924Z,15.80
2023-03-04T22:48:49.061Z,14.80
2023-03-04T22:51:15.421Z,16.70
2023-03-04T22:53:42.853Z,18.40
2023-03-04T22:56:10.270Z,14.90
2023-03-04T22:58:36.366Z,16.30
2023-03-04T23:01:04.124Z,15.80
2023-03-04T23:03:30.436Z,15.90
2023-03-04T23:06:05.742Z,16.60
2023-03-04T23:08:36.436Z,16.10
2023-03-04T23:11:08.611Z,16.30
2023-03-04T23:13:34.862Z,16.40
2023-03-04T23:16:07.374Z,15.00
2023-03-04T23:21:12.053Z,14.80
2023-03-04T23:23:40.725Z,15.60
2023-03-04T23:26:14.637Z,15.70
2023-03-04T23:28:40.818Z,16.20
2023-03-04T23:31:06.981Z,15.40
2023-03-04T23:33:33.117Z,16.70
2023-03-04T23:35:59.392Z,14.70
2023-03-04T23:38:25.809Z,14.70
2023-03-04T23:40:51.874Z,16.60
2023-03-04T23:43:18.000Z,16.20
2023-03-04T23:45:44.174Z,16.10
2023-03-04T23:48:10.451Z,14.40
2023-03-04T23:50:37.526Z,16.80
2023-03-04T23:53:03.701Z,15.50
2023-03-04T23:55:33.145Z,16.50
2023-03-04T23:57:59.210Z,17.00
